Time;durP1;ratioP1;P1;durP2;ratioP2;P2;SDS_P1;SDS_P2;PMS_P1;PMS_P2;Temp;Humidity;BMP_temperature;BMP_pressure;BME280_temperature;BME280_humidity;BME280_pressure;Samples;Min_cycle;Max_cycle;Signal;HPM_P1;HPM_P2
2021/04/19 00:00:22;;;;;;;0.60;0.60;;;;;;;5.77;73.43;97110.06;29991;347;6000;-58
2021/04/19 00:00:54;;;;;;;0.60;0.60;;;;;;;5.78;73.58;97110.88;29991;220;6004;-58
2021/04/19 00:01:25;;;;;;;0.60;0.60;;;;;;;5.76;73.21;97107.63;29990;217;6000;-57
2021/04/19 00:01:56;;;;;;;0.60;0.60;;;;;;;5.76;73.43;97113.00;29991;202;6004;-59
2021/04/19 00:02:27;;;;;;;0.60;0.60;;;;;;;5.76;73.49;97108.44;29990;210;6000;-57
2021/04/19 00:02:58;;;;;;;0.70;0.70;;;;;;;5.76;73.36;97107.63;29990;338;6004;-57
2021/04/19 00:03:30;;;;;;;0.60;0.60;;;;;;;5.76;73.46;97105.75;29989;230;6000;-59
2021/04/19 00:04:01;;;;;;;0.60;0.60;;;;;;;5.75;73.37;97106.81;29991;227;6006;-58
2021/04/19 00:04:32;;;;;;;0.60;0.60;;;;;;;5.74;73.43;97105.19;29990;216;6000;-58
2021/04/19 00:05:07;;;;;;;0.60;0.60;;;;;;;5.75;73.05;97109.50;29991;292;6005;-59
2021/04/19 00:05:38;;;;;;;0.60;0.60;;;;;;;5.74;73.26;97105.19;29990;222;6000;-59
2021/04/19 00:06:08;;;;;;;0.60;0.60;;;;;;;5.76;73.18;97113.81;29991;255;6005;-58
2021/04/19 00:06:40;;;;;;;0.60;0.60;;;;;;;5.76;72.74;97103.06;29991;224;6000;-57
2021/04/19 00:07:10;;;;;;;0.60;0.60;;;;;;;5.75;72.87;97101.44;29990;276;6004;-58
2021/04/19 00:07:41;;;;;;;0.60;0.60;;;;;;;5.75;72.78;97106.81;29990;211;6000;-58
2021/04/19 00:08:12;;;;;;;0.60;0.60;;;;;;;5.75;72.69;97106.81;29991;202;6004;-58
2021/04/19 00:08:43;;;;;;;0.60;0.60;;;;;;;5.75;72.79;97104.13;29989;247;6000;-58
2021/04/19 00:09:14;;;;;;;0.60;0.60;;;;;;;5.74;72.94;97099.81;29991;197;6004;-58
2021/04/19 00:09:45;;;;;;;0.68;0.68;;;;;;;5.75;72.92;97112.22;29990;216;6000;-57
2021/04/19 00:10:18;;;;;;;0.60;0.60;;;;;;;5.75;72.85;97106.81;29990;247;6004;-58
2021/04/19 00:10:50;;;;;;;0.60;0.60;;;;;;;5.72;72.61;97099.25;29989;294;6000;-57
2021/04/19 00:11:21;;;;;;;0.60;0.60;;;;;;;5.75;72.73;97104.13;29990;214;6004;-58
2021/04/19 00:11:52;;;;;;;0.60;0.60;;;;;;;5.75;72.61;97109.50;29990;215;6000;-57
2021/04/19 00:12:23;;;;;;;0.60;0.60;;;;;;;5.74;72.83;97105.19;29990;237;6000;-57
2021/04/19 00:12:54;;;;;;;0.60;0.60;;;;;;;5.73;72.88;97106.25;29990;216;6000;-58
2021/04/19 00:13:25;;;;;;;0.60;0.60;;;;;;;5.72;72.56;97107.31;29991;209;6005;-59
2021/04/19 00:13:56;;;;;;;0.60;0.60;;;;;;;5.72;72.80;97107.31;29990;204;6000;-58
2021/04/19 00:14:26;;;;;;;0.60;0.60;;;;;;;5.70;72.64;97102.19;29991;229;6004;-57
2021/04/19 00:14:57;;;;;;;0.60;0.60;;;;;;;5.71;72.80;97105.69;29990;223;6000;-59
2021/04/19 00:15:30;;;;;;;0.60;0.60;;;;;;;5.72;72.58;97107.31;29990;235;6004;-58
2021/04/19 00:16:00;;;;;;;0.60;0.60;;;;;;;5.75;72.58;97112.22;29990;210;6000;-58
2021/04/19 00:16:32;;;;;;;0.60;0.60;;;;;;;5.76;72.32;97108.44;29990;210;6004;-57
2021/04/19 00:17:03;;;;;;;0.60;0.60;;;;;;;5.76;72.23;97108.44;29990;204;6000;-58
2021/04/19 00:17:34;;;;;;;0.60;0.60;;;;;;;5.77;72.36;97112.75;29990;221;6008;-57
2021/04/19 00:18:06;;;;;;;0.60;0.60;;;;;;;5.76;72.06;97100.38;29991;196;6000;-60
2021/04/19 00:18:37;;;;;;;0.60;0.60;;;;;;;5.76;72.00;97097.69;29990;210;6004;-57
2021/04/19 00:19:08;;;;;;;0.60;0.60;;;;;;;5.76;72.27;97103.06;29991;218;6000;-58
2021/04/19 00:19:39;;;;;;;0.60;0.60;;;;;;;5.75;72.24;97098.75;29991;222;6005;-57
2021/04/19 00:20:13;;;;;;;0.60;0.60;;;;;;;5.74;72.18;97099.81;29990;232;6000;-57
2021/04/19 00:20:44;;;;;;;0.60;0.60;;;;;;;5.75;72.10;97100.62;29991;237;6005;-57
2021/04/19 00:21:15;;;;;;;0.60;0.60;;;;;;;5.74;72.43;97099.81;29990;219;6000;-56
2021/04/19 00:21:46;;;;;;;0.60;0.60;;;;;;;5.75;72.25;97101.44;29990;205;6004;-58
2021/04/19 00:22:16;;;;;;;0.60;0.60;;;;;;;5.74;72.51;97094.44;29991;214;6011;-58
2021/04/19 00:22:47;;;;;;;0.60;0.60;;;;;;;5.73;72.33;97100.88;29990;256;6004;-58
2021/04/19 00:23:18;;;;;;;0.60;0.60;;;;;;;5.72;72.56;97101.94;29991;228;6000;-57
2021/04/19 00:23:49;;;;;;;0.60;0.60;;;;;;;5.72;72.25;97099.25;29990;234;6004;-56
2021/04/19 00:24:20;;;;;;;0.60;0.60;;;;;;;5.69;72.64;97091.69;29990;228;6000;-56
2021/04/19 00:24:52;;;;;;;0.60;0.60;;;;;;;5.71;72.58;97100.31;29991;196;6004;-57
2021/04/19 00:25:23;;;;;;;0.60;0.60;;;;;;;5.69;72.54;97094.38;29990;211;6000;-56
2021/04/19 00:25:53;;;;;;;0.60;0.60;;;;;;;5.69;72.37;97094.38;29991;205;6004;-57
2021/04/19 00:26:24;;;;;;;0.60;0.60;;;;;;;5.69;72.83;97102.44;29990;206;6000;-57
2021/04/19 00:26:55;;;;;;;0.70;0.70;;;;;;;5.69;72.84;97102.44;29990;226;6005;-59
2021/04/19 00:27:26;;;;;;;0.60;0.60;;;;;;;5.68;72.71;97098.13;29990;277;6000;-57
2021/04/19 00:27:56;;;;;;;0.60;0.60;;;;;;;5.68;72.70;97095.44;29990;234;6005;-57
2021/04/19 00:28:27;;;;;;;0.60;0.60;;;;;;;5.68;72.75;97095.44;29991;198;6000;-58
2021/04/19 00:28:58;;;;;;;0.60;0.60;;;;;;;5.68;72.78;97101.62;29989;228;6005;-56
2021/04/19 00:29:29;;;;;;;0.60;0.60;;;;;;;5.68;72.62;97098.13;29989;219;6000;-58
2021/04/19 00:30:00;;;;;;;0.60;0.60;;;;;;;5.69;72.58;97097.06;29991;214;6004;-57
2021/04/19 00:30:30;;;;;;;0.60;0.60;;;;;;;5.69;72.62;97102.44;29990;235;6000;-56
2021/04/19 00:31:02;;;;;;;0.60;0.60;;;;;;;5.66;72.66;97092.19;29991;217;6004;-57
2021/04/19 00:31:33;;;;;;;0.60;0.60;;;;;;;5.69;72.64;97102.44;29991;237;6000;-57
2021/04/19 00:32:04;;;;;;;0.60;0.60;;;;;;;5.68;72.41;97100.81;29990;225;6004;-57
2021/04/19 00:32:35;;;;;;;0.60;0.60;;;;;;;5.70;72.48;97098.69;29990;240;6000;-57
2021/04/19 00:33:06;;;;;;;0.60;0.60;;;;;;;5.68;72.73;97100.81;29990;227;6004;-57
2021/04/19 00:33:37;;;;;;;0.60;0.60;;;;;;;5.67;72.61;97093.81;29991;237;6000;-58
2021/04/19 00:34:08;;;;;;;0.60;0.60;;;;;;;5.65;73.00;97095.94;29991;216;6005;-58
2021/04/19 00:34:38;;;;;;;0.60;0.60;;;;;;;5.64;73.05;97094.31;29989;254;6000;-57
2021/04/19 00:35:11;;;;;;;0.70;0.70;;;;;;;5.62;72.80;97102.66;29990;213;6000;-57
2021/04/19 00:35:45;;;;;;;0.60;0.60;;;;;;;5.63;73.06;97088.13;29991;204;6000;-58
2021/04/19 00:36:16;;;;;;;0.60;0.60;;;;;;;5.62;73.16;97096.47;29991;199;6004;-57
2021/04/19 00:36:46;;;;;;;0.60;0.60;;;;;;;5.63;73.06;97093.53;29990;237;6000;-56
2021/04/19 00:37:17;;;;;;;0.70;0.70;;;;;;;5.61;73.36;97092.16;29991;227;6004;-57
2021/04/19 00:37:49;;;;;;;0.60;0.60;;;;;;;5.62;73.37;97091.06;29991;231;6000;-56
2021/04/19 00:38:20;;;;;;;0.60;0.60;;;;;;;5.61;73.29;97094.84;29989;213;6004;-57
2021/04/19 00:38:51;;;;;;;0.60;0.60;;;;;;;5.62;73.22;97088.38;29991;213;6000;-57
2021/04/19 00:39:22;;;;;;;0.60;0.60;;;;;;;5.62;73.41;97091.06;29990;215;6004;-58
2021/04/19 00:39:59;;;;;;;0.60;0.60;;;;;;;5.60;73.27;97098.59;29990;224;6000;-57
2021/04/19 00:40:31;;;;;;;0.60;0.60;;;;;;;5.59;73.09;97089.72;29991;217;6004;-57
2021/04/19 00:41:03;;;;;;;0.60;0.60;;;;;;;5.58;73.41;97087.28;29991;212;6000;-57
2021/04/19 00:41:34;;;;;;;0.70;0.70;;;;;;;5.54;73.22;97088.87;29990;197;6005;-57
2021/04/19 00:42:06;;;;;;;0.70;0.70;;;;;;;5.58;73.19;97081.87;29991;232;6000;-57
2021/04/19 00:42:37;;;;;;;0.70;0.70;;;;;;;5.57;73.36;97093.72;29991;231;6005;-58
2021/04/19 00:43:08;;;;;;;0.60;0.60;;;;;;;5.57;73.49;97097.22;29990;199;6000;-57
2021/04/19 00:43:40;;;;;;;0.60;0.60;;;;;;;5.56;73.28;97086.72;29990;200;6004;-56
2021/04/19 00:44:12;;;;;;;0.70;0.70;;;;;;;5.54;73.56;97088.87;29991;255;6000;-57
2021/04/19 00:44:44;;;;;;;0.70;0.70;;;;;;;5.55;73.61;97090.47;29990;208;6004;-56
2021/04/19 00:45:19;;;;;;;0.70;0.70;;;;;;;5.56;73.36;97097.47;29990;196;6000;-56
2021/04/19 00:45:51;;;;;;;0.60;0.60;;;;;;;5.57;73.43;97088.34;29990;198;6004;-57
2021/04/19 00:46:23;;;;;;;0.70;0.70;;;;;;;5.56;73.50;97087.53;29989;197;6000;-55
2021/04/19 00:46:57;;;;;;;0.60;0.60;;;;;;;5.56;73.57;97086.72;29991;207;6004;-56
2021/04/19 00:47:28;;;;;;;0.60;0.60;;;;;;;5.56;73.27;97094.78;29991;211;6000;-57
2021/04/19 00:47:58;;;;;;;0.60;0.60;;;;;;;5.56;73.53;97092.09;29990;302;6004;-57
2021/04/19 00:48:32;;;;;;;0.60;0.60;;;;;;;5.57;73.35;97089.16;29991;207;6000;-57
2021/04/19 00:49:03;;;;;;;0.60;0.60;;;;;;;5.57;73.52;97089.16;29991;274;6005;-57
2021/04/19 00:49:34;;;;;;;0.60;0.60;;;;;;;5.58;73.44;97088.09;29990;256;6000;-56
2021/04/19 00:50:07;;;;;;;0.70;0.70;;;;;;;5.57;73.54;97088.34;29991;235;6005;-57
2021/04/19 00:50:37;;;;;;;0.60;0.60;;;;;;;5.57;73.46;97088.34;29990;215;6000;-56
2021/04/19 00:51:11;;;;;;;0.60;0.60;;;;;;;5.60;73.43;97082.44;29990;259;6004;-57
2021/04/19 00:51:42;;;;;;;0.60;0.60;;;;;;;5.59;73.42;97078.12;29991;245;6000;-56
2021/04/19 00:52:13;;;;;;;0.60;0.60;;;;;;;5.59;73.48;97080.81;29991;233;6004;-57
2021/04/19 00:52:45;;;;;;;0.60;0.60;;;;;;;5.61;73.35;97084.88;29990;233;6000;-57
2021/04/19 00:53:16;;;;;;;0.62;0.62;;;;;;;5.62;73.23;97081.13;29990;264;6004;-56
2021/04/19 00:53:47;;;;;;;0.62;0.62;;;;;;;5.64;72.91;97088.94;29991;212;6000;-56
2021/04/19 00:54:19;;;;;;;0.60;0.60;;;;;;;5.62;73.24;97080.31;29991;214;6004;-57
2021/04/19 00:54:50;;;;;;;0.60;0.60;;;;;;;5.62;73.08;97072.25;29990;329;6000;-57
2021/04/19 00:55:20;;;;;;;0.60;0.60;;;;;;;5.63;73.34;97087.31;29990;218;6004;-56
2021/04/19 00:55:53;;;;;;;0.73;0.73;;;;;;;5.61;73.50;97076.00;29991;249;6000;-57
2021/04/19 00:56:24;;;;;;;0.60;0.60;;;;;;;5.60;73.28;97085.12;29991;285;6005;-57
2021/04/19 00:57:01;;;;;;;0.60;0.60;;;;;;;5.60;73.32;97085.12;29990;220;6000;-57
2021/04/19 00:57:36;;;;;;;0.70;0.70;;;;;;;5.58;73.31;97084.59;29991;235;6005;-56
2021/04/19 00:58:08;;;;;;;0.60;0.60;;;;;;;5.55;73.95;97074.31;29990;284;6000;-57
2021/04/19 00:58:40;;;;;;;1.15;1.15;;;;;;;5.54;73.66;97075.41;29991;198;6004;-56
2021/04/19 00:59:14;;;;;;;0.60;0.60;;;;;;;5.53;73.39;97073.81;29990;358;6000;-56
2021/04/19 00:59:50;;;;;;;0.60;0.60;;;;;;;5.52;73.98;97080.25;29991;196;6004;-56
2021/04/19 01:00:34;;;;;;;0.60;0.60;;;;;;;5.51;73.73;97074.06;29991;271;6000;-58
2021/04/19 01:01:05;;;;;;;0.60;0.60;;;;;;;5.52;73.43;97070.28;29991;226;6004;-57
2021/04/19 01:01:44;;;;;;;0.60;0.60;;;;;;;5.53;73.56;97076.50;29990;216;6000;-56
2021/04/19 01:02:24;;;;;;;0.80;0.80;;;;;;;5.51;73.54;97084.00;29990;275;6004;-58
2021/04/19 01:02:59;;;;;;;0.70;0.70;;;;;;;5.49;73.41;97075.38;29989;196;6000;-57
2021/04/19 01:03:30;;;;;;;0.60;0.60;;;;;;;5.48;74.04;97079.13;29991;226;6004;-57
2021/04/19 01:04:02;;;;;;;0.60;0.60;;;;;;;5.46;73.70;97081.25;29990;225;6000;-57
2021/04/19 01:04:37;;;;;;;0.60;0.60;;;;;;;5.46;73.99;97075.88;29991;314;6005;-57
2021/04/19 01:05:25;;;;;;;0.68;0.68;;;;;;;5.46;74.36;97081.25;29990;220;6000;-57
2021/04/19 01:05:56;;;;;;;0.65;0.65;;;;;;;5.44;74.28;97083.41;29991;241;6005;-57
2021/04/19 01:06:27;;;;;;;0.70;0.70;;;;;;;5.42;74.22;97078.28;29989;294;6000;-58
2021/04/19 01:07:00;;;;;;;0.60;0.60;;;;;;;5.42;74.20;97080.16;29990;220;6004;-57
2021/04/19 01:07:31;;;;;;;0.70;0.70;;;;;;;5.41;74.08;97076.63;29990;242;6000;-57
2021/04/19 01:08:08;;;;;;;0.68;0.68;;;;;;;5.41;74.07;97083.91;29990;239;6004;-58
2021/04/19 01:08:40;;;;;;;0.70;0.70;;;;;;;5.42;74.16;97080.97;29990;227;6000;-57
2021/04/19 01:09:14;;;;;;;0.70;0.70;;;;;;;5.43;74.01;97081.78;29990;260;6004;-57
2021/04/19 01:09:54;;;;;;;0.70;0.70;;;;;;;5.42;74.31;97082.84;29991;222;6000;-56
2021/04/19 01:10:26;;;;;;;0.60;0.60;;;;;;;5.39;74.57;97084.97;29990;368;6004;-56
2021/04/19 01:10:58;;;;;;;0.60;0.60;;;;;;;5.41;74.40;97078.53;29989;208;6000;-57
2021/04/19 01:11:28;;;;;;;0.70;0.70;;;;;;;5.41;74.17;97075.84;29991;220;6005;-57
2021/04/19 01:11:59;;;;;;;0.60;0.60;;;;;;;5.41;74.11;97073.94;29990;200;6000;-58
2021/04/19 01:12:30;;;;;;;0.68;0.68;;;;;;;5.39;74.15;97071.50;29991;199;6005;-57
2021/04/19 01:13:03;;;;;;;0.60;0.60;;;;;;;5.42;73.90;97074.75;29991;382;6000;-57
2021/04/19 01:13:33;;;;;;;0.60;0.60;;;;;;;5.45;74.30;97074.25;29990;238;6005;-58
2021/04/19 01:14:04;;;;;;;0.60;0.60;;;;;;;5.45;74.29;97076.94;29990;331;6000;-57
2021/04/19 01:14:35;;;;;;;0.60;0.60;;;;;;;5.44;74.11;97062.69;29990;276;6004;-58
2021/04/19 01:15:06;;;;;;;0.60;0.60;;;;;;;5.46;73.96;97075.88;29990;222;6000;-58
2021/04/19 01:15:38;;;;;;;0.60;0.60;;;;;;;5.46;73.86;97065.13;29991;255;6004;-56
2021/04/19 01:16:09;;;;;;;0.60;0.60;;;;;;;5.49;73.94;97070.00;29990;236;6000;-56
2021/04/19 01:16:40;;;;;;;0.60;0.60;;;;;;;5.52;73.58;97074.87;29990;237;6004;-56
2021/04/19 01:17:11;;;;;;;0.60;0.60;;;;;;;5.52;73.57;97070.28;29990;196;6000;-57
2021/04/19 01:17:43;;;;;;;0.60;0.60;;;;;;;5.51;73.55;97070.56;29990;228;6004;-58
2021/04/19 01:18:14;;;;;;;0.60;0.60;;;;;;;5.49;73.54;97070.00;29990;247;6000;-56
2021/04/19 01:18:45;;;;;;;0.60;0.60;;;;;;;5.48;73.64;97071.06;29990;262;6004;-56
2021/04/19 01:19:16;;;;;;;0.60;0.60;;;;;;;5.48;73.74;97071.06;29990;241;6000;-56
2021/04/19 01:19:47;;;;;;;0.60;0.60;;;;;;;5.47;73.71;97067.56;29990;227;6005;-56
2021/04/19 01:20:25;;;;;;;0.60;0.60;;;;;;;5.48;73.58;97073.75;29990;271;6000;-56
2021/04/19 01:20:58;;;;;;;0.60;0.60;;;;;;;5.49;73.63;97070.00;29990;212;6005;-58
2021/04/19 01:21:33;;;;;;;0.60;0.60;;;;;;;5.48;73.39;97073.75;29991;197;6000;-57
2021/04/19 01:22:10;;;;;;;0.60;0.60;;;;;;;5.49;73.35;97080.75;29990;331;6004;-57
2021/04/19 01:22:45;;;;;;;0.60;0.60;;;;;;;5.50;73.44;97077.81;29990;233;6007;-56
2021/04/19 01:23:17;;;;;;;0.60;0.60;;;;;;;5.50;73.53;97077.00;29990;224;6013;-57
2021/04/19 01:23:49;;;;;;;0.60;0.60;;;;;;;5.49;73.81;97076.19;29990;210;6000;-57
2021/04/19 01:24:20;;;;;;;0.70;0.70;;;;;;;5.49;73.81;97075.38;29990;233;6004;-58
2021/04/19 01:24:51;;;;;;;0.60;0.60;;;;;;;5.48;73.68;97073.75;29991;221;6000;-57
2021/04/19 01:25:24;;;;;;;0.60;0.60;;;;;;;5.49;73.59;97075.38;29990;275;6004;-57
2021/04/19 01:25:55;;;;;;;0.70;0.70;;;;;;;5.48;74.00;97071.06;29990;226;6000;-57
2021/04/19 01:26:29;;;;;;;0.60;0.60;;;;;;;5.46;73.78;97075.88;29991;209;6005;-58
2021/04/19 01:27:00;;;;;;;0.60;0.60;;;;;;;5.48;73.80;97082.63;29990;202;6000;-57
2021/04/19 01:27:30;;;;;;;0.70;0.70;;;;;;;5.49;73.72;97075.38;29990;206;6005;-57
2021/04/19 01:28:02;;;;;;;0.70;0.70;;;;;;;5.49;73.77;97080.75;29990;247;6000;-57
2021/04/19 01:28:36;;;;;;;0.60;0.60;;;;;;;5.47;73.61;97072.94;29989;302;6005;-57
2021/04/19 01:29:07;;;;;;;0.70;0.70;;;;;;;5.47;73.79;97072.94;29991;251;6000;-57
2021/04/19 01:29:39;;;;;;;0.60;0.60;;;;;;;5.51;73.73;97073.25;29989;196;6004;-58
2021/04/19 01:30:11;;;;;;;0.60;0.60;;;;;;;5.49;73.81;97067.31;29990;216;6000;-57
2021/04/19 01:30:49;;;;;;;0.60;0.60;;;;;;;5.49;73.71;97068.09;29991;316;6004;-58
2021/04/19 01:31:22;;;;;;;0.68;0.68;;;;;;;5.52;73.55;97069.47;29990;245;6000;-57
2021/04/19 01:31:53;;;;;;;0.70;0.70;;;;;;;5.52;73.85;97072.97;29991;236;6004;-58
2021/04/19 01:32:26;;;;;;;1.90;1.80;;;;;;;5.51;74.19;97073.25;29990;229;6008;-60
2021/04/19 01:33:03;;;;;;;0.70;0.70;;;;;;;5.48;74.21;97069.19;29991;219;6004;-59
2021/04/19 01:33:34;;;;;;;0.60;0.60;;;;;;;5.48;73.89;97068.38;29991;203;6000;-58
2021/04/19 01:34:08;;;;;;;0.70;0.70;;;;;;;5.49;74.06;97070.00;29990;203;6005;-57
2021/04/19 01:34:39;;;;;;;0.60;0.60;;;;;;;5.54;73.75;97072.72;29990;219;6000;-58
2021/04/19 01:35:11;;;;;;;0.60;0.60;;;;;;;5.56;73.88;97076.75;29991;263;6005;-56
2021/04/19 01:35:42;;;;;;;0.80;0.80;;;;;;;5.55;73.64;97075.13;29990;216;6000;-58
2021/04/19 01:36:13;;;;;;;0.70;0.70;;;;;;;5.57;73.61;97074.87;29990;225;6004;-58
2021/04/19 01:36:47;;;;;;;0.60;0.60;;;;;;;5.55;73.64;97075.13;29989;214;6000;-58
2021/04/19 01:37:21;;;;;;;0.60;0.60;;;;;;;5.53;73.62;97076.50;29990;212;6004;-58
2021/04/19 01:37:52;;;;;;;0.60;0.60;;;;;;;5.49;73.82;97061.91;29991;234;6000;-57
2021/04/19 01:38:26;;;;;;;0.60;0.60;;;;;;;5.50;73.88;97072.44;29990;216;6009;-57
2021/04/19 01:38:57;;;;;;;0.60;0.60;;;;;;;5.50;73.77;97072.44;29990;291;6000;-57
2021/04/19 01:39:36;;;;;;;0.60;0.60;;;;;;;5.51;73.79;97075.94;29990;277;6004;-58
2021/04/19 01:40:27;;;;;;;0.70;0.70;;;;;;;5.49;73.75;97070.00;29990;227;6000;-57
2021/04/19 01:41:07;;;;;;;0.60;0.60;;;;;;;5.48;74.00;97073.75;29990;225;6005;-56
2021/04/19 01:41:40;;;;;;;0.60;0.60;;;;;;;5.46;73.84;97070.50;29990;256;6000;-58
2021/04/19 01:42:12;;;;;;;0.70;0.70;;;;;;;5.47;73.87;97072.13;29990;234;6005;-57
2021/04/19 01:42:44;;;;;;;0.60;0.60;;;;;;;5.46;74.01;97075.88;29990;221;6000;-57
2021/04/19 01:43:22;;;;;;;0.68;0.68;;;;;;;5.42;73.94;97074.75;29991;239;6004;-56
2021/04/19 01:43:55;;;;;;;0.60;0.60;;;;;;;5.42;73.68;97074.75;29989;218;6000;-57
2021/04/19 01:44:28;;;;;;;0.60;0.60;;;;;;;5.43;73.72;97071.00;29990;224;6017;-57
2021/04/19 01:44:59;;;;;;;0.70;0.70;;;;;;;5.42;73.78;97069.38;29990;230;6000;-56
2021/04/19 01:45:33;;;;;;;0.60;0.60;;;;;;;5.43;73.83;97071.00;29991;273;6004;-56
2021/04/19 01:46:04;;;;;;;0.62;0.62;;;;;;;5.44;73.59;97067.25;29991;252;6008;-56
2021/04/19 01:46:39;;;;;;;0.60;0.60;;;;;;;5.44;73.81;97072.63;29990;300;6004;-57
2021/04/19 01:47:10;;;;;;;0.60;0.60;;;;;;;5.42;73.61;97072.06;29990;251;6000;-57
2021/04/19 01:47:41;;;;;;;0.60;0.60;;;;;;;5.41;73.70;97068.56;29990;232;6004;-57
2021/04/19 01:48:12;;;;;;;0.60;0.60;;;;;;;5.43;73.82;97074.50;29990;219;6000;-56
2021/04/19 01:48:42;;;;;;;0.60;0.60;;;;;;;5.44;73.63;97065.38;29990;332;6005;-57
2021/04/19 01:49:23;;;;;;;0.60;0.60;;;;;;;5.45;73.79;97068.88;29990;220;6000;-56
2021/04/19 01:49:54;;;;;;;0.70;0.70;;;;;;;5.46;73.67;97062.44;29991;211;6005;-57
2021/04/19 01:50:27;;;;;;;0.60;0.60;;;;;;;5.46;73.61;97067.81;29990;196;6000;-57
2021/04/19 01:51:00;;;;;;;0.60;0.60;;;;;;;5.47;73.55;97066.75;29990;350;6004;-57
2021/04/19 01:51:34;;;;;;;0.70;0.70;;;;;;;5.46;73.50;97065.13;29990;235;6000;-58
2021/04/19 01:52:08;;;;;;;0.60;0.60;;;;;;;5.48;73.46;97068.38;29990;198;6004;-59
2021/04/19 01:52:42;;;;;;;0.70;0.70;;;;;;;5.46;73.79;97065.13;29991;222;6000;-57
2021/04/19 01:53:13;;;;;;;0.70;0.70;;;;;;;5.46;73.39;97065.94;29990;199;6004;-57
2021/04/19 01:53:44;;;;;;;0.60;0.60;;;;;;;5.47;73.34;97061.34;29990;218;6000;-59
2021/04/19 01:54:15;;;;;;;0.60;0.60;;;;;;;5.46;73.57;97071.31;29990;204;6004;-58
2021/04/19 01:54:46;;;;;;;0.60;0.60;;;;;;;5.45;73.65;97063.50;29990;214;6000;-58
2021/04/19 01:55:20;;;;;;;0.60;0.60;;;;;;;5.46;73.62;97070.50;29990;218;6004;-58
2021/04/19 01:55:51;;;;;;;0.60;0.60;;;;;;;5.42;73.64;97056.75;29991;227;6000;-58
2021/04/19 01:56:22;;;;;;;0.70;0.70;;;;;;;5.44;73.83;97061.88;29990;209;6005;-58
2021/04/19 01:56:54;;;;;;;0.60;0.60;;;;;;;5.43;73.96;97057.56;29990;198;6000;-57
2021/04/19 01:57:25;;;;;;;0.60;0.60;;;;;;;5.42;73.77;97075.56;29990;222;6005;-59
2021/04/19 01:58:17;;;;;;;0.60;0.60;;;;;;;5.41;73.91;97070.44;29989;248;6000;-60
2021/04/19 01:58:47;;;;;;;0.60;0.60;;;;;;;5.39;74.24;97057.25;29990;378;6004;-60
2021/04/19 01:59:19;;;;;;;0.60;0.60;;;;;;;5.41;74.23;97062.38;29990;272;6000;-58
2021/04/19 01:59:50;;;;;;;0.60;0.60;;;;;;;5.39;74.03;97066.13;29990;314;6004;-59
2021/04/19 02:00:23;;;;;;;0.60;0.60;;;;;;;5.41;74.02;97062.38;29991;227;6000;-58
2021/04/19 02:00:58;;;;;;;0.60;0.60;;;;;;;5.39;74.47;97060.75;29990;224;6004;-58
2021/04/19 02:01:29;;;;;;;0.60;0.60;;;;;;;5.38;74.41;97058.31;29991;386;6000;-57
2021/04/19 02:02:28;;;;;;;0.60;0.60;;;;;;;5.36;74.47;97066.63;29990;311;6004;-59
2021/04/19 02:03:27;;;;;;;0.60;0.60;;;;;;;5.34;74.71;97058.00;29990;223;6000;-57
2021/04/19 02:04:24;;;;;;;0.60;0.60;;;;;;;5.36;74.36;97060.44;29990;215;6005;-57
2021/04/19 02:05:27;;;;;;;1.05;1.05;;;;;;;5.36;74.24;97061.25;29990;203;6000;-58
2021/04/19 02:06:24;;;;;;;0.70;0.70;;;;;;;5.35;74.51;97059.63;29990;360;6004;-57
2021/04/19 02:07:13;;;;;;;0.60;0.60;;;;;;;5.34;74.36;97057.19;29990;316;6000;-57
2021/04/19 02:07:52;;;;;;;0.60;0.60;;;;;;;5.37;74.12;97054.81;29990;235;6004;-58
2021/04/19 02:08:57;;;;;;;0.70;0.70;;;;;;;5.36;74.04;97055.88;29991;315;6010;-57
2021/04/19 02:09:35;;;;;;;0.70;0.70;;;;;;;5.38;74.12;97058.31;29990;233;6004;-57
2021/04/19 02:10:22;;;;;;;0.62;0.62;;;;;;;5.38;74.18;97064.50;29991;264;6000;-58
2021/04/19 02:11:17;;;;;;;0.60;0.60;;;;;;;5.36;74.24;97061.25;29990;220;6005;-59
2021/04/19 02:12:19;;;;;;;0.70;0.70;;;;;;;5.35;74.52;97067.72;29990;206;6005;-58
2021/04/19 02:13:20;;;;;;;0.93;0.93;;;;;;;5.35;74.25;97054.25;29989;214;6007;-59
2021/04/19 02:14:01;;;;;;;0.70;0.70;;;;;;;5.37;74.16;97062.06;29990;216;6004;-58
2021/04/19 02:14:57;;;;;;;0.60;0.60;;;;;;;5.35;74.24;97054.25;29989;222;6000;-57
2021/04/19 02:15:44;;;;;;;0.70;0.70;;;;;;;5.35;74.26;97061.50;29990;341;6000;-58
2021/04/19 02:16:38;;;;;;;0.60;0.60;;;;;;;5.36;74.35;97055.06;29989;199;6000;-58
2021/04/19 02:17:43;;;;;;;0.60;0.60;;;;;;;5.36;74.17;97061.25;29990;235;6004;-58
2021/04/19 02:18:30;;;;;;;0.60;0.60;;;;;;;5.35;73.87;97054.25;29991;212;6000;-58
2021/04/19 02:19:18;;;;;;;0.68;0.68;;;;;;;5.37;73.92;97054.81;29989;323;6005;-58
2021/04/19 02:20:39;;;;;;;0.60;0.60;;;;;;;5.38;73.84;97053.75;29990;215;6007;-58
2021/04/19 02:21:29;;;;;;;0.70;0.70;;;;;;;5.38;74.11;97053.75;29990;299;6000;-56
2021/04/19 02:22:25;;;;;;;0.60;0.60;;;;;;;5.35;73.87;97059.63;29990;253;6004;-57
2021/04/19 02:23:00;;;;;;;0.60;0.60;;;;;;;5.38;74.08;97052.94;29990;281;6000;-58
2021/04/19 02:23:35;;;;;;;0.77;0.77;;;;;;;5.36;74.11;97050.50;29989;208;6016;-58
2021/04/19 02:24:10;;;;;;;0.60;0.60;;;;;;;5.39;73.83;97055.38;29990;286;6000;-57
2021/04/19 02:24:45;;;;;;;0.70;0.70;;;;;;;5.38;74.13;97051.06;29989;236;6004;-57
2021/04/19 02:25:41;;;;;;;0.60;0.60;;;;;;;5.39;74.18;97049.19;29990;372;6000;-57
2021/04/19 02:26:41;;;;;;;0.60;0.60;;;;;;;5.38;74.30;97053.75;29990;202;6005;-57
2021/04/19 02:27:26;;;;;;;0.60;0.60;;;;;;;5.41;74.18;97051.63;29990;367;6000;-57
2021/04/19 02:28:07;;;;;;;0.60;0.60;;;;;;;5.41;73.95;97046.22;29989;331;6005;-57
2021/04/19 02:28:44;;;;;;;;;;;;;;;5.41;73.99;97046.22;29997;973;5990;-58
2021/04/19 02:29:26;;;;;;;0.60;0.60;;;;;;;5.42;74.21;97047.84;29996;269;6000;-59
2021/04/19 02:30:01;;;;;;;0.70;0.70;;;;;;;5.42;74.06;97042.47;29990;216;6004;-57
2021/04/19 02:30:35;;;;;;;0.60;0.60;;;;;;;5.43;74.30;97046.78;29990;272;6000;-57
2021/04/19 02:31:13;;;;;;;0.70;0.70;;;;;;;5.43;74.02;97046.78;29991;229;6004;-59
2021/04/19 02:31:52;;;;;;;0.60;0.60;;;;;;;5.45;74.01;97044.66;29990;203;6000;-57
2021/04/19 02:32:46;;;;;;;0.60;0.60;;;;;;;5.48;74.02;97046.84;29990;308;6004;-56
2021/04/19 02:33:19;;;;;;;0.70;0.70;;;;;;;5.49;73.83;97048.47;29989;257;6000;-58
2021/04/19 02:33:57;;;;;;;0.70;0.70;;;;;;;5.48;73.68;97049.53;29990;363;6005;-57
2021/04/19 02:34:32;;;;;;;0.60;0.60;;;;;;;5.50;73.67;97055.47;29990;327;6000;-55
2021/04/19 02:35:09;;;;;;;0.60;0.60;;;;;;;5.49;73.80;97049.28;29990;292;6005;-57
2021/04/19 02:35:43;;;;;;;0.70;0.70;;;;;;;5.49;73.72;97048.47;29989;207;6000;-57
2021/04/19 02:36:14;;;;;;;0.60;0.60;;;;;;;5.48;73.66;97047.66;29990;298;6004;-56
2021/04/19 02:36:52;;;;;;;0.60;0.60;;;;;;;5.50;73.61;97047.41;29990;214;6001;-58
2021/04/19 02:37:24;;;;;;;0.70;0.70;;;;;;;5.50;73.74;97052.78;29990;324;6004;-56
2021/04/19 02:37:57;;;;;;;0.50;0.50;;;;;;;5.48;73.57;97044.16;29990;233;6000;-57
2021/04/19 02:38:30;;;;;;;0.70;0.70;;;;;;;5.48;73.56;97047.66;29990;268;6004;-56
2021/04/19 02:39:03;;;;;;;0.70;0.70;;;;;;;5.48;73.75;97044.97;29990;344;6000;-56
2021/04/19 02:39:39;;;;;;;0.60;0.60;;;;;;;5.47;73.82;97051.41;29990;218;6004;-55
2021/04/19 02:40:12;;;;;;;0.70;0.70;;;;;;;5.47;73.63;97045.22;29990;303;6000;-56
2021/04/19 02:40:46;;;;;;;0.70;0.70;;;;;;;5.47;73.83;97039.81;29990;278;6005;-56
2021/04/19 02:41:19;;;;;;;0.60;0.60;;;;;;;5.46;73.78;97043.59;29990;216;6000;-57
2021/04/19 02:41:53;;;;;;;0.60;0.60;;;;;;;5.47;73.83;97047.91;29990;207;6005;-57
2021/04/19 02:42:26;;;;;;;0.65;0.65;;;;;;;5.46;73.80;97043.59;29990;334;6000;-56
2021/04/19 02:42:58;;;;;;;0.60;0.60;;;;;;;5.46;73.89;97044.41;29990;221;6005;-57
2021/04/19 02:43:34;;;;;;;0.60;0.60;;;;;;;5.47;73.95;97045.22;29991;207;6000;-57
2021/04/19 02:44:08;;;;;;;0.60;0.60;;;;;;;5.48;73.98;97044.16;29990;203;6004;-56
2021/04/19 02:44:40;;;;;;;0.70;0.70;;;;;;;5.48;73.58;97052.22;29989;260;6000;-56
2021/04/19 02:45:14;;;;;;;0.70;0.70;;;;;;;5.48;73.89;97041.44;29990;215;6004;-56
2021/04/19 02:45:45;;;;;;;0.68;0.68;;;;;;;5.49;74.01;97043.06;29991;271;6000;-57
2021/04/19 02:46:17;;;;;;;0.60;0.60;;;;;;;5.49;74.13;97043.06;29991;204;6004;-56
2021/04/19 02:46:54;;;;;;;0.60;0.60;;;;;;;5.46;73.92;97041.72;29991;254;6000;-56
2021/04/19 02:47:26;;;;;;;0.60;0.60;;;;;;;5.46;74.16;97039.03;29990;265;6004;-56
2021/04/19 02:47:57;;;;;;;0.60;0.60;;;;;;;5.47;74.08;97042.53;29990;233;6000;-57
2021/04/19 02:48:28;;;;;;;0.60;0.60;;;;;;;5.47;74.17;97050.59;29990;277;6005;-56
2021/04/19 02:49:00;;;;;;;0.70;0.70;;;;;;;5.46;74.14;97043.59;29991;230;6000;-57
2021/04/19 02:49:33;;;;;;;0.60;0.60;;;;;;;5.45;74.54;97045.47;29989;254;6005;-57